sensor_id;sensor_type;location;lat;lon;timestamp;temperature;humidity
2631;DHT22;1325;48.414;9.952;2022-08-06T00:00:32;19.60;99.90
2631;DHT22;1325;48.414;9.952;2022-08-06T00:03:01;19.60;99.90
2631;DHT22;1325;48.414;9.952;2022-08-06T00:05:29;19.90;99.90
2631;DHT22;1325;48.414;9.952;2022-08-06T00:07:56;20.20;99.90
2631;DHT22;1325;48.414;9.952;2022-08-06T00:10:23;20.00;99.90
2631;DHT22;1325;48.414;9.952;2022-08-06T00:12:51;19.60;99.90
2631;DHT22;1325;48.414;9.952;2022-08-06T00:15:19;19.40;99.90
2631;DHT22;1325;48.414;9.952;2022-08-06T00:17:47;19.40;99.90
2631;DHT22;1325;48.414;9.952;2022-08-06T00:20:16;19.40;99.90
2631;DHT22;1325;48.414;9.952;2022-08-06T00:22:43;19.80;99.90
2631;DHT22;1325;48.414;9.952;2022-08-06T00:25:11;20.10;99.90
2631;DHT22;1325;48.414;9.952;2022-08-06T00:27:39;20.00;99.90
2631;DHT22;1325;48.414;9.952;2022-08-06T00:30:08;19.90;99.90
2631;DHT22;1325;48.414;9.952;2022-08-06T00:32:36;19.70;99.90
2631;DHT22;1325;48.414;9.952;2022-08-06T00:35:04;19.70;99.90
2631;DHT22;1325;48.414;9.952;2022-08-06T00:37:33;19.40;99.90
2631;DHT22;1325;48.414;9.952;2022-08-06T00:40:00;19.40;99.90
2631;DHT22;1325;48.414;9.952;2022-08-06T00:42:28;19.40;99.90
2631;DHT22;1325;48.414;9.952;2022-08-06T00:44:55;19.50;99.90
2631;DHT22;1325;48.414;9.952;2022-08-06T00:47:22;19.00;99.90
2631;DHT22;1325;48.414;9.952;2022-08-06T00:49:49;18.90;99.90
2631;DHT22;1325;48.414;9.952;2022-08-06T00:52:17;18.70;99.90
2631;DHT22;1325;48.414;9.952;2022-08-06T00:54:46;18.50;99.90
2631;DHT22;1325;48.414;9.952;2022-08-06T00:57:13;18.30;99.90
2631;DHT22;1325;48.414;9.952;2022-08-06T00:59:40;18.30;99.90
2631;DHT22;1325;48.414;9.952;2022-08-06T01:02:08;17.90;99.90
2631;DHT22;1325;48.414;9.952;2022-08-06T01:04:35;17.50;99.90
2631;DHT22;1325;48.414;9.952;2022-08-06T01:07:02;17.30;99.90
2631;DHT22;1325;48.414;9.952;2022-08-06T01:09:30;17.20;99.90
2631;DHT22;1325;48.414;9.952;2022-08-06T01:11:59;17.30;99.90
2631;DHT22;1325;48.414;9.952;2022-08-06T01:14:26;17.50;99.90
2631;DHT22;1325;48.414;9.952;2022-08-06T01:16:57;17.20;99.90
2631;DHT22;1325;48.414;9.952;2022-08-06T01:19:40;17.30;99.90
2631;DHT22;1325;48.414;9.952;2022-08-06T01:22:32;17.30;99.90
2631;DHT22;1325;48.414;9.952;2022-08-06T01:25:24;17.20;99.90
2631;DHT22;1325;48.414;9.952;2022-08-06T01:28:16;17.20;99.90
2631;DHT22;1325;48.414;9.952;2022-08-06T01:30:49;17.40;99.90
2631;DHT22;1325;48.414;9.952;2022-08-06T01:33:22;17.30;99.90
2631;DHT22;1325;48.414;9.952;2022-08-06T01:35:54;17.30;99.90
2631;DHT22;1325;48.414;9.952;2022-08-06T01:38:29;17.20;99.90
2631;DHT22;1325;48.414;9.952;2022-08-06T01:41:01;17.30;99.90
2631;DHT22;1325;48.414;9.952;2022-08-06T01:43:32;17.30;99.90
2631;DHT22;1325;48.414;9.952;2022-08-06T01:46:00;17.10;99.90
2631;DHT22;1325;48.414;9.952;2022-08-06T01:48:28;16.90;99.90
2631;DHT22;1325;48.414;9.952;2022-08-06T01:51:00;16.70;99.90
2631;DHT22;1325;48.414;9.952;2022-08-06T01:53:31;16.80;99.90
2631;DHT22;1325;48.414;9.952;2022-08-06T01:56:03;16.80;99.90
2631;DHT22;1325;48.414;9.952;2022-08-06T01:58:37;16.80;99.90
2631;DHT22;1325;48.414;9.952;2022-08-06T02:01:10;16.90;99.90
2631;DHT22;1325;48.414;9.952;2022-08-06T02:03:43;16.70;99.90
2631;DHT22;1325;48.414;9.952;2022-08-06T02:06:15;16.50;99.90
2631;DHT22;1325;48.414;9.952;2022-08-06T02:08:44;16.60;99.90
2631;DHT22;1325;48.414;9.952;2022-08-06T02:11:13;16.70;99.90
2631;DHT22;1325;48.414;9.952;2022-08-06T02:13:42;16.60;99.90
2631;DHT22;1325;48.414;9.952;2022-08-06T02:16:22;16.60;99.90
2631;DHT22;1325;48.414;9.952;2022-08-06T02:18:51;16.60;99.90
2631;DHT22;1325;48.414;9.952;2022-08-06T02:21:41;16.30;99.90
2631;DHT22;1325;48.414;9.952;2022-08-06T02:24:10;16.50;99.90
2631;DHT22;1325;48.414;9.952;2022-08-06T02:26:40;16.30;99.90
2631;DHT22;1325;48.414;9.952;2022-08-06T02:29:14;16.50;99.90
2631;DHT22;1325;48.414;9.952;2022-08-06T02:31:43;16.60;99.90
2631;DHT22;1325;48.414;9.952;2022-08-06T02:34:11;16.90;99.90
2631;DHT22;1325;48.414;9.952;2022-08-06T02:36:41;16.80;99.90
2631;DHT22;1325;48.414;9.952;2022-08-06T02:39:13;16.90;99.90
2631;DHT22;1325;48.414;9.952;2022-08-06T02:41:48;16.80;99.90
2631;DHT22;1325;48.414;9.952;2022-08-06T02:44:26;16.50;99.90
2631;DHT22;1325;48.414;9.952;2022-08-06T02:47:11;16.30;99.90
2631;DHT22;1325;48.414;9.952;2022-08-06T02:49:43;16.00;99.90
2631;DHT22;1325;48.414;9.952;2022-08-06T02:52:15;16.10;99.90
2631;DHT22;1325;48.414;9.952;2022-08-06T02:54:48;16.40;99.90
2631;DHT22;1325;48.414;9.952;2022-08-06T02:57:22;16.40;99.90
2631;DHT22;1325;48.414;9.952;2022-08-06T02:59:54;16.40;99.90
2631;DHT22;1325;48.414;9.952;2022-08-06T03:02:28;16.30;99.90
2631;DHT22;1325;48.414;9.952;2022-08-06T03:04:57;16.50;99.90
2631;DHT22;1325;48.414;9.952;2022-08-06T03:07:28;16.60;99.90
2631;DHT22;1325;48.414;9.952;2022-08-06T03:09:58;16.60;99.90
2631;DHT22;1325;48.414;9.952;2022-08-06T03:12:27;16.80;99.90
2631;DHT22;1325;48.414;9.952;2022-08-06T03:14:58;16.60;99.90
2631;DHT22;1325;48.414;9.952;2022-08-06T03:17:28;16.40;99.90
2631;DHT22;1325;48.414;9.952;2022-08-06T03:19:56;16.30;99.90
2631;DHT22;1325;48.414;9.952;2022-08-06T03:22:25;16.10;99.90
2631;DHT22;1325;48.414;9.952;2022-08-06T03:24:53;16.30;99.90
2631;DHT22;1325;48.414;9.952;2022-08-06T03:27:22;16.20;99.90
2631;DHT22;1325;48.414;9.952;2022-08-06T03:29:50;16.40;99.90
2631;DHT22;1325;48.414;9.952;2022-08-06T03:32:20;16.30;99.90
2631;DHT22;1325;48.414;9.952;2022-08-06T03:34:48;16.40;99.90
2631;DHT22;1325;48.414;9.952;2022-08-06T03:37:17;16.30;99.90
2631;DHT22;1325;48.414;9.952;2022-08-06T03:39:47;16.40;99.90
2631;DHT22;1325;48.414;9.952;2022-08-06T03:42:15;16.30;99.90
2631;DHT22;1325;48.414;9.952;2022-08-06T03:44:43;16.30;99.90
2631;DHT22;1325;48.414;9.952;2022-08-06T03:47:29;16.30;99.90
2631;DHT22;1325;48.414;9.952;2022-08-06T03:50:03;16.10;99.90
2631;DHT22;1325;48.414;9.952;2022-08-06T03:52:38;16.30;99.90
2631;DHT22;1325;48.414;9.952;2022-08-06T03:55:08;16.40;99.90
2631;DHT22;1325;48.414;9.952;2022-08-06T03:57:43;16.30;99.90
2631;DHT22;1325;48.414;9.952;2022-08-06T04:00:15;16.30;99.90
2631;DHT22;1325;48.414;9.952;2022-08-06T04:02:47;16.10;99.90
2631;DHT22;1325;48.414;9.952;2022-08-06T04:05:18;16.00;99.90
2631;DHT22;1325;48.414;9.952;2022-08-06T04:07:48;15.80;99.90
2631;DHT22;1325;48.414;9.952;2022-08-06T04:10:18;15.80;99.90
2631;DHT22;1325;48.414;9.952;2022-08-06T04:12:45;16.00;99.90
2631;DHT22;1325;48.414;9.952;2022-08-06T04:15:14;16.60;99.90
2631;DHT22;1325;48.414;9.952;2022-08-06T04:17:44;16.50;99.90
2631;DHT22;1325;48.414;9.952;2022-08-06T04:20:15;16.30;99.90
2631;DHT22;1325;48.414;9.952;2022-08-06T04:22:45;16.50;99.90
2631;DHT22;1325;48.414;9.952;2022-08-06T04:25:13;16.70;99.90
2631;DHT22;1325;48.414;9.952;2022-08-06T04:27:41;16.40;99.90
2631;DHT22;1325;48.414;9.952;2022-08-06T04:30:11;16.20;99.90
2631;DHT22;1325;48.414;9.952;2022-08-06T04:32:40;16.20;99.90
2631;DHT22;1325;48.414;9.952;2022-08-06T04:35:11;16.20;99.90
2631;DHT22;1325;48.414;9.952;2022-08-06T04:37:39;16.30;99.90
2631;DHT22;1325;48.414;9.952;2022-08-06T04:40:08;16.40;99.90
2631;DHT22;1325;48.414;9.952;2022-08-06T04:42:37;16.50;99.90
2631;DHT22;1325;48.414;9.952;2022-08-06T04:45:07;16.50;99.90
2631;DHT22;1325;48.414;9.952;2022-08-06T04:47:36;16.50;99.90
2631;DHT22;1325;48.414;9.952;2022-08-06T04:50:05;16.50;99.90
2631;DHT22;1325;48.414;9.952;2022-08-06T04:52:34;16.70;99.90
2631;DHT22;1325;48.414;9.952;2022-08-06T04:55:02;16.60;99.90
2631;DHT22;1325;48.414;9.952;2022-08-06T04:57:29;16.50;99.90
2631;DHT22;1325;48.414;9.952;2022-08-06T04:59:57;16.50;99.90
2631;DHT22;1325;48.414;9.952;2022-08-06T05:02:24;16.60;99.90
2631;DHT22;1325;48.414;9.952;2022-08-06T05:04:52;16.60;99.90
2631;DHT22;1325;48.414;9.952;2022-08-06T05:07:23;16.50;99.90
2631;DHT22;1325;48.414;9.952;2022-08-06T05:09:54;16.60;99.90
2631;DHT22;1325;48.414;9.952;2022-08-06T05:12:27;16.30;99.90
2631;DHT22;1325;48.414;9.952;2022-08-06T05:15:02;16.70;99.90
2631;DHT22;1325;48.414;9.952;2022-08-06T05:17:36;16.60;99.90
2631;DHT22;1325;48.414;9.952;2022-08-06T05:20:14;16.50;99.90
2631;DHT22;1325;48.414;9.952;2022-08-06T05:22:45;16.80;99.90
2631;DHT22;1325;48.414;9.952;2022-08-06T05:25:18;16.80;99.90
2631;DHT22;1325;48.414;9.952;2022-08-06T05:27:46;17.00;99.90
2631;DHT22;1325;48.414;9.952;2022-08-06T05:30:14;17.00;99.90
2631;DHT22;1325;48.414;9.952;2022-08-06T05:32:42;17.00;99.90
2631;DHT22;1325;48.414;9.952;2022-08-06T05:35:09;17.00;99.90
2631;DHT22;1325;48.414;9.952;2022-08-06T05:37:37;16.80;99.90
2631;DHT22;1325;48.414;9.952;2022-08-06T05:40:06;16.60;99.90
2631;DHT22;1325;48.414;9.952;2022-08-06T05:42:35;16.50;99.90
2631;DHT22;1325;48.414;9.952;2022-08-06T05:45:03;16.70;99.90
2631;DHT22;1325;48.414;9.952;2022-08-06T05:47:34;16.70;99.90
2631;DHT22;1325;48.414;9.952;2022-08-06T05:50:06;16.90;99.90
2631;DHT22;1325;48.414;9.952;2022-08-06T05:52:39;16.90;99.90
2631;DHT22;1325;48.414;9.952;2022-08-06T05:55:15;16.90;99.90
2631;DHT22;1325;48.414;9.952;2022-08-06T05:57:49;17.10;99.90
2631;DHT22;1325;48.414;9.952;2022-08-06T06:00:20;16.90;99.90
2631;DHT22;1325;48.414;9.952;2022-08-06T06:02:50;16.70;99.90
2631;DHT22;1325;48.414;9.952;2022-08-06T06:05:20;16.70;99.90
2631;DHT22;1325;48.414;9.952;2022-08-06T06:07:48;17.00;99.90
2631;DHT22;1325;48.414;9.952;2022-08-06T06:10:18;17.00;99.90
2631;DHT22;1325;48.414;9.952;2022-08-06T06:12:49;17.20;99.90
2631;DHT22;1325;48.414;9.952;2022-08-06T06:15:17;16.90;99.90
2631;DHT22;1325;48.414;9.952;2022-08-06T06:17:58;17.10;99.90
2631;DHT22;1325;48.414;9.952;2022-08-06T06:20:42;16.80;99.90
2631;DHT22;1325;48.414;9.952;2022-08-06T06:23:19;16.60;99.90
2631;DHT22;1325;48.414;9.952;2022-08-06T06:25:55;16.80;99.90
2631;DHT22;1325;48.414;9.952;2022-08-06T06:28:35;16.70;99.90
2631;DHT22;1325;48.414;9.952;2022-08-06T06:33:44;17.10;99.90
2631;DHT22;1325;48.414;9.952;2022-08-06T06:36:23;17.00;99.90
2631;DHT22;1325;48.414;9.952;2022-08-06T06:38:59;17.10;99.90
2631;DHT22;1325;48.414;9.952;2022-08-06T06:41:34;17.10;99.90
2631;DHT22;1325;48.414;9.952;2022-08-06T06:44:09;17.10;99.90
2631;DHT22;1325;48.414;9.952;2022-08-06T06:46:43;17.30;99.90
2631;DHT22;1325;48.414;9.952;2022-08-06T06:49:17;17.20;99.90
2631;DHT22;1325;48.414;9.952;2022-08-06T06:52:02;17.30;99.90
2631;DHT22;1325;48.414;9.952;2022-08-06T06:54:37;17.30;99.90
2631;DHT22;1325;48.414;9.952;2022-08-06T06:57:10;17.30;99.90
2631;DHT22;1325;48.414;9.952;2022-08-06T06:59:43;17.40;99.90
2631;DHT22;1325;48.414;9.952;2022-08-06T07:02:16;17.30;99.90
2631;DHT22;1325;48.414;9.952;2022-08-06T07:04:47;17.30;99.90
2631;DHT22;1325;48.414;9.952;2022-08-06T07:07:16;17.30;99.90
2631;DHT22;1325;48.414;9.952;2022-08-06T07:09:45;17.30;99.90
2631;DHT22;1325;48.414;9.952;2022-08-06T07:12:17;17.30;99.90
2631;DHT22;1325;48.414;9.952;2022-08-06T07:14:50;17.20;99.90
2631;DHT22;1325;48.414;9.952;2022-08-06T07:17:22;17.20;99.90
2631;DHT22;1325;48.414;9.952;2022-08-06T07:19:51;17.20;99.90
2631;DHT22;1325;48.414;9.952;2022-08-06T07:22:20;17.30;99.90
2631;DHT22;1325;48.414;9.952;2022-08-06T07:24:51;17.70;99.90
2631;DHT22;1325;48.414;9.952;2022-08-06T07:27:19;18.10;99.90
2631;DHT22;1325;48.414;9.952;2022-08-06T07:29:48;18.30;99.90
2631;DHT22;1325;48.414;9.952;2022-08-06T07:32:16;18.10;99.90
2631;DHT22;1325;48.414;9.952;2022-08-06T07:34:44;18.00;99.90
2631;DHT22;1325;48.414;9.952;2022-08-06T07:37:12;18.00;99.90
2631;DHT22;1325;48.414;9.952;2022-08-06T07:39:43;18.20;99.90
2631;DHT22;1325;48.414;9.952;2022-08-06T07:42:13;18.30;99.90
2631;DHT22;1325;48.414;9.952;2022-08-06T07:44:44;18.50;99.90
2631;DHT22;1325;48.414;9.952;2022-08-06T07:47:19;18.50;99.90
2631;DHT22;1325;48.414;9.952;2022-08-06T07:49:54;18.40;99.90
2631;DHT22;1325;48.414;9.952;2022-08-06T07:52:23;18.40;99.90
2631;DHT22;1325;48.414;9.952;2022-08-06T07:54:52;18.10;99.90
2631;DHT22;1325;48.414;9.952;2022-08-06T07:57:21;18.00;99.90
2631;DHT22;1325;48.414;9.952;2022-08-06T07:59:50;18.00;99.90
2631;DHT22;1325;48.414;9.952;2022-08-06T08:02:19;18.30;99.90
2631;DHT22;1325;48.414;9.952;2022-08-06T08:04:46;18.40;99.90
2631;DHT22;1325;48.414;9.952;2022-08-06T08:07:31;18.40;99.90
2631;DHT22;1325;48.414;9.952;2022-08-06T08:09:59;18.50;99.90
2631;DHT22;1325;48.414;9.952;2022-08-06T08:12:27;18.80;99.90
2631;DHT22;1325;48.414;9.952;2022-08-06T08:14:57;18.90;99.90
2631;DHT22;1325;48.414;9.952;2022-08-06T08:17:25;18.90;99.90
2631;DHT22;1325;48.414;9.952;2022-08-06T08:19:52;18.80;99.90
2631;DHT22;1325;48.414;9.952;2022-08-06T08:22:20;18.90;99.90
2631;DHT22;1325;48.414;9.952;2022-08-06T08:24:48;18.80;99.90
2631;DHT22;1325;48.414;9.952;2022-08-06T08:27:15;18.80;99.90
2631;DHT22;1325;48.414;9.952;2022-08-06T08:29:42;19.10;99.90
2631;DHT22;1325;48.414;9.952;2022-08-06T08:32:11;19.40;99.90
2631;DHT22;1325;48.414;9.952;2022-08-06T08:34:38;19.20;99.90
2631;DHT22;1325;48.414;9.952;2022-08-06T08:37:05;19.50;99.90
2631;DHT22;1325;48.414;9.952;2022-08-06T08:39:33;19.50;99.90
2631;DHT22;1325;48.414;9.952;2022-08-06T08:42:03;19.20;99.90
2631;DHT22;1325;48.414;9.952;2022-08-06T08:44:34;18.90;99.90
2631;DHT22;1325;48.414;9.952;2022-08-06T08:47:03;19.10;99.90
2631;DHT22;1325;48.414;9.952;2022-08-06T08:49:37;19.00;99.90
2631;DHT22;1325;48.414;9.952;2022-08-06T08:52:08;19.10;99.90
2631;DHT22;1325;48.414;9.952;2022-08-06T08:54:36;19.10;99.90
2631;DHT22;1325;48.414;9.952;2022-08-06T08:57:07;18.90;99.90
2631;DHT22;1325;48.414;9.952;2022-08-06T08:59:35;18.90;99.90
2631;DHT22;1325;48.414;9.952;2022-08-06T09:02:04;19.10;99.90
2631;DHT22;1325;48.414;9.952;2022-08-06T09:04:33;19.40;99.90
2631;DHT22;1325;48.414;9.952;2022-08-06T09:07:02;19.60;99.90
2631;DHT22;1325;48.414;9.952;2022-08-06T09:09:30;19.90;99.90
2631;DHT22;1325;48.414;9.952;2022-08-06T09:11:58;20.30;99.90
2631;DHT22;1325;48.414;9.952;2022-08-06T09:14:26;20.40;99.90
2631;DHT22;1325;48.414;9.952;2022-08-06T09:16:53;20.30;99.90
2631;DHT22;1325;48.414;9.952;2022-08-06T09:19:23;19.90;99.90
2631;DHT22;1325;48.414;9.952;2022-08-06T09:21:52;19.90;99.90
2631;DHT22;1325;48.414;9.952;2022-08-06T09:24:19;19.90;99.90
2631;DHT22;1325;48.414;9.952;2022-08-06T09:27:02;20.00;99.90
2631;DHT22;1325;48.414;9.952;2022-08-06T09:29:30;19.90;99.90
2631;DHT22;1325;48.414;9.952;2022-08-06T09:31:57;20.30;99.90
2631;DHT22;1325;48.414;9.952;2022-08-06T09:34:32;20.10;99.90
2631;DHT22;1325;48.414;9.952;2022-08-06T09:37:01;20.10;99.90
2631;DHT22;1325;48.414;9.952;2022-08-06T09:39:34;19.90;99.90
2631;DHT22;1325;48.414;9.952;2022-08-06T09:42:05;20.00;99.90
2631;DHT22;1325;48.414;9.952;2022-08-06T09:44:33;20.10;99.90
2631;DHT22;1325;48.414;9.952;2022-08-06T09:47:01;20.10;99.90
2631;DHT22;1325;48.414;9.952;2022-08-06T09:49:43;20.60;99.90
2631;DHT22;1325;48.414;9.952;2022-08-06T09:52:14;20.40;99.90
2631;DHT22;1325;48.414;9.952;2022-08-06T09:54:42;20.20;99.90
2631;DHT22;1325;48.414;9.952;2022-08-06T09:57:09;20.30;99.90
2631;DHT22;1325;48.414;9.952;2022-08-06T09:59:45;20.40;99.90
2631;DHT22;1325;48.414;9.952;2022-08-06T10:02:15;20.40;99.90
2631;DHT22;1325;48.414;9.952;2022-08-06T10:04:44;20.20;99.90
2631;DHT22;1325;48.414;9.952;2022-08-06T10:07:14;20.20;99.90
2631;DHT22;1325;48.414;9.952;2022-08-06T10:09:52;20.20;99.90
2631;DHT22;1325;48.414;9.952;2022-08-06T10:12:23;20.60;99.90
2631;DHT22;1325;48.414;9.952;2022-08-06T10:14:51;20.60;99.90
2631;DHT22;1325;48.414;9.952;2022-08-06T10:17:20;20.60;99.90
2631;DHT22;1325;48.414;9.952;2022-08-06T10:20:04;21.00;99.90
2631;DHT22;1325;48.414;9.952;2022-08-06T10:22:34;20.70;99.90
2631;DHT22;1325;48.414;9.952;2022-08-06T10:25:03;20.20;99.90
2631;DHT22;1325;48.414;9.952;2022-08-06T10:27:33;20.40;99.90
2631;DHT22;1325;48.414;9.952;2022-08-06T10:30:04;20.40;99.90
2631;DHT22;1325;48.414;9.952;2022-08-06T10:32:37;20.50;99.90
2631;DHT22;1325;48.414;9.952;2022-08-06T10:35:11;20.80;99.90
2631;DHT22;1325;48.414;9.952;2022-08-06T10:37:45;20.60;99.90
2631;DHT22;1325;48.414;9.952;2022-08-06T10:40:18;20.60;99.90
2631;DHT22;1325;48.414;9.952;2022-08-06T10:42:46;20.70;99.90
2631;DHT22;1325;48.414;9.952;2022-08-06T10:45:14;21.00;99.90
2631;DHT22;1325;48.414;9.952;2022-08-06T10:47:45;21.20;99.90
2631;DHT22;1325;48.414;9.952;2022-08-06T10:50:14;22.40;99.90
2631;DHT22;1325;48.414;9.952;2022-08-06T10:52:43;22.70;99.90
2631;DHT22;1325;48.414;9.952;2022-08-06T10:55:12;23.10;99.90
2631;DHT22;1325;48.414;9.952;2022-08-06T10:57:39;23.40;99.90
2631;DHT22;1325;48.414;9.952;2022-08-06T11:00:08;23.10;99.90
2631;DHT22;1325;48.414;9.952;2022-08-06T11:02:42;22.70;99.90
2631;DHT22;1325;48.414;9.952;2022-08-06T11:05:18;22.90;99.90
2631;DHT22;1325;48.414;9.952;2022-08-06T11:08:02;22.50;99.90
2631;DHT22;1325;48.414;9.952;2022-08-06T11:10:56;22.10;99.90
2631;DHT22;1325;48.414;9.952;2022-08-06T11:13:33;21.70;99.90
2631;DHT22;1325;48.414;9.952;2022-08-06T11:16:04;21.40;99.90
2631;DHT22;1325;48.414;9.952;2022-08-06T11:18:31;21.50;99.90
2631;DHT22;1325;48.414;9.952;2022-08-06T11:20:59;21.30;99.90
2631;DHT22;1325;48.414;9.952;2022-08-06T11:23:30;21.20;99.90
2631;DHT22;1325;48.414;9.952;2022-08-06T11:25:59;21.50;99.90
2631;DHT22;1325;48.414;9.952;2022-08-06T11:28:58;21.50;99.90
2631;DHT22;1325;48.414;9.952;2022-08-06T11:31:37;21.90;99.90
2631;DHT22;1325;48.414;9.952;2022-08-06T11:34:08;22.10;99.90
2631;DHT22;1325;48.414;9.952;2022-08-06T11:36:47;22.10;99.90
2631;DHT22;1325;48.414;9.952;2022-08-06T11:39:18;22.00;99.90
2631;DHT22;1325;48.414;9.952;2022-08-06T11:41:52;21.70;99.90
2631;DHT22;1325;48.414;9.952;2022-08-06T11:44:21;21.40;99.90
2631;DHT22;1325;48.414;9.952;2022-08-06T11:47:06;21.40;99.90
2631;DHT22;1325;48.414;9.952;2022-08-06T11:49:39;21.40;99.90
2631;DHT22;1325;48.414;9.952;2022-08-06T11:52:08;21.40;99.90
2631;DHT22;1325;48.414;9.952;2022-08-06T11:55:02;21.70;99.90
2631;DHT22;1325;48.414;9.952;2022-08-06T11:57:32;21.60;99.90
2631;DHT22;1325;48.414;9.952;2022-08-06T12:00:15;21.70;99.90
2631;DHT22;1325;48.414;9.952;2022-08-06T12:02:49;21.80;99.90
2631;DHT22;1325;48.414;9.952;2022-08-06T12:05:42;22.00;99.90
2631;DHT22;1325;48.414;9.952;2022-08-06T12:08:33;22.10;99.90
2631;DHT22;1325;48.414;9.952;2022-08-06T12:11:27;21.90;99.90
2631;DHT22;1325;48.414;9.952;2022-08-06T12:13:59;21.40;99.90
2631;DHT22;1325;48.414;9.952;2022-08-06T12:16:27;21.40;99.90
2631;DHT22;1325;48.414;9.952;2022-08-06T12:18:59;21.50;99.90
2631;DHT22;1325;48.414;9.952;2022-08-06T12:21:28;21.90;99.90
2631;DHT22;1325;48.414;9.952;2022-08-06T12:23:56;21.50;99.90
2631;DHT22;1325;48.414;9.952;2022-08-06T12:26:24;21.60;99.90
2631;DHT22;1325;48.414;9.952;2022-08-06T12:29:03;21.60;99.90
2631;DHT22;1325;48.414;9.952;2022-08-06T12:31:34;21.70;99.90
2631;DHT22;1325;48.414;9.952;2022-08-06T12:34:03;21.70;99.90
2631;DHT22;1325;48.414;9.952;2022-08-06T12:36:50;21.80;99.90
2631;DHT22;1325;48.414;9.952;2022-08-06T12:39:17;21.80;99.90
2631;DHT22;1325;48.414;9.952;2022-08-06T12:41:46;21.80;99.90
2631;DHT22;1325;48.414;9.952;2022-08-06T12:44:14;21.80;99.90
2631;DHT22;1325;48.414;9.952;2022-08-06T12:46:41;22.00;99.90
2631;DHT22;1325;48.414;9.952;2022-08-06T12:49:09;21.90;99.90
2631;DHT22;1325;48.414;9.952;2022-08-06T12:51:37;21.80;99.90
2631;DHT22;1325;48.414;9.952;2022-08-06T12:54:06;21.80;99.90
2631;DHT22;1325;48.414;9.952;2022-08-06T12:56:37;22.00;99.90
2631;DHT22;1325;48.414;9.952;2022-08-06T12:59:10;22.00;99.90
2631;DHT22;1325;48.414;9.952;2022-08-06T13:01:38;22.10;99.90
2631;DHT22;1325;48.414;9.952;2022-08-06T13:04:10;21.90;99.90
2631;DHT22;1325;48.414;9.952;2022-08-06T13:06:39;22.10;99.90
2631;DHT22;1325;48.414;9.952;2022-08-06T13:09:06;22.10;99.90
2631;DHT22;1325;48.414;9.952;2022-08-06T13:11:34;22.00;99.90
2631;DHT22;1325;48.414;9.952;2022-08-06T13:14:11;22.40;99.90
2631;DHT22;1325;48.414;9.952;2022-08-06T13:16:44;22.40;99.90
2631;DHT22;1325;48.414;9.952;2022-08-06T13:19:14;22.70;99.90
2631;DHT22;1325;48.414;9.952;2022-08-06T13:21:43;22.90;99.90
2631;DHT22;1325;48.414;9.952;2022-08-06T13:24:12;22.90;99.90
2631;DHT22;1325;48.414;9.952;2022-08-06T13:26:53;22.90;99.90
2631;DHT22;1325;48.414;9.952;2022-08-06T13:29:23;22.70;99.90
2631;DHT22;1325;48.414;9.952;2022-08-06T13:32:00;22.80;99.90
2631;DHT22;1325;48.414;9.952;2022-08-06T13:34:29;22.90;99.90
2631;DHT22;1325;48.414;9.952;2022-08-06T13:36:57;22.80;99.90
2631;DHT22;1325;48.414;9.952;2022-08-06T13:39:27;22.80;99.90
2631;DHT22;1325;48.414;9.952;2022-08-06T13:42:00;22.50;99.90
2631;DHT22;1325;48.414;9.952;2022-08-06T13:44:31;22.10;99.90
2631;DHT22;1325;48.414;9.952;2022-08-06T13:47:02;22.60;99.90
2631;DHT22;1325;48.414;9.952;2022-08-06T13:49:29;22.50;99.90
2631;DHT22;1325;48.414;9.952;2022-08-06T13:51:57;22.40;99.90
2631;DHT22;1325;48.414;9.952;2022-08-06T13:54:25;22.50;99.90
2631;DHT22;1325;48.414;9.952;2022-08-06T13:56:55;22.50;99.90
2631;DHT22;1325;48.414;9.952;2022-08-06T13:59:25;22.60;99.90
2631;DHT22;1325;48.414;9.952;2022-08-06T14:01:57;22.80;99.90
2631;DHT22;1325;48.414;9.952;2022-08-06T14:04:27;22.60;99.90
2631;DHT22;1325;48.414;9.952;2022-08-06T14:06:56;22.70;99.90
2631;DHT22;1325;48.414;9.952;2022-08-06T14:09:26;22.70;99.90
2631;DHT22;1325;48.414;9.952;2022-08-06T14:11:56;23.00;99.90
2631;DHT22;1325;48.414;9.952;2022-08-06T14:14:25;23.10;99.90
2631;DHT22;1325;48.414;9.952;2022-08-06T14:16:57;23.30;99.90
2631;DHT22;1325;48.414;9.952;2022-08-06T14:19:26;22.40;99.90
2631;DHT22;1325;48.414;9.952;2022-08-06T14:21:53;22.70;99.90
2631;DHT22;1325;48.414;9.952;2022-08-06T14:24:21;22.90;99.90
2631;DHT22;1325;48.414;9.952;2022-08-06T14:26:48;23.00;99.90
2631;DHT22;1325;48.414;9.952;2022-08-06T14:29:15;23.10;99.90
2631;DHT22;1325;48.414;9.952;2022-08-06T14:31:42;22.70;99.90
2631;DHT22;1325;48.414;9.952;2022-08-06T14:34:10;22.50;99.90
2631;DHT22;1325;48.414;9.952;2022-08-06T14:36:38;22.50;99.90
2631;DHT22;1325;48.414;9.952;2022-08-06T14:39:05;22.20;99.90
2631;DHT22;1325;48.414;9.952;2022-08-06T14:41:33;22.40;99.90
2631;DHT22;1325;48.414;9.952;2022-08-06T14:44:18;22.70;99.90
2631;DHT22;1325;48.414;9.952;2022-08-06T14:47:02;22.70;99.90
2631;DHT22;1325;48.414;9.952;2022-08-06T14:49:31;22.80;99.90
2631;DHT22;1325;48.414;9.952;2022-08-06T14:51:58;22.70;99.90
2631;DHT22;1325;48.414;9.952;2022-08-06T14:54:26;22.50;99.90
2631;DHT22;1325;48.414;9.952;2022-08-06T14:56:54;22.50;99.90
2631;DHT22;1325;48.414;9.952;2022-08-06T14:59:22;22.40;99.90
2631;DHT22;1325;48.414;9.952;2022-08-06T15:01:51;22.10;99.90
2631;DHT22;1325;48.414;9.952;2022-08-06T15:04:19;22.20;99.90
2631;DHT22;1325;48.414;9.952;2022-08-06T15:06:49;22.10;99.90
2631;DHT22;1325;48.414;9.952;2022-08-06T15:09:16;22.50;99.90
2631;DHT22;1325;48.414;9.952;2022-08-06T15:11:44;22.70;99.90
2631;DHT22;1325;48.414;9.952;2022-08-06T15:14:11;22.40;99.90
2631;DHT22;1325;48.414;9.952;2022-08-06T15:16:38;22.30;99.90
2631;DHT22;1325;48.414;9.952;2022-08-06T15:19:06;22.30;99.90
2631;DHT22;1325;48.414;9.952;2022-08-06T15:21:33;22.50;99.90
2631;DHT22;1325;48.414;9.952;2022-08-06T15:24:02;22.20;99.90
2631;DHT22;1325;48.414;9.952;2022-08-06T15:26:29;22.40;99.90
2631;DHT22;1325;48.414;9.952;2022-08-06T15:28:57;22.30;99.90
2631;DHT22;1325;48.414;9.952;2022-08-06T15:31:27;22.70;99.90
2631;DHT22;1325;48.414;9.952;2022-08-06T15:33:54;22.30;99.90
2631;DHT22;1325;48.414;9.952;2022-08-06T15:36:23;21.90;99.90
2631;DHT22;1325;48.414;9.952;2022-08-06T15:38:51;22.20;99.90
2631;DHT22;1325;48.414;9.952;2022-08-06T15:41:20;22.10;99.90
2631;DHT22;1325;48.414;9.952;2022-08-06T15:43:49;22.10;99.90
2631;DHT22;1325;48.414;9.952;2022-08-06T15:46:17;22.10;99.90
2631;DHT22;1325;48.414;9.952;2022-08-06T15:48:46;22.20;99.90
2631;DHT22;1325;48.414;9.952;2022-08-06T15:51:13;22.20;99.90
2631;DHT22;1325;48.414;9.952;2022-08-06T15:53:40;22.10;99.90
2631;DHT22;1325;48.414;9.952;2022-08-06T15:56:08;22.20;99.90
2631;DHT22;1325;48.414;9.952;2022-08-06T15:58:37;22.30;99.90
2631;DHT22;1325;48.414;9.952;2022-08-06T16:01:04;22.60;99.90
2631;DHT22;1325;48.414;9.952;2022-08-06T16:03:32;22.60;99.90
2631;DHT22;1325;48.414;9.952;2022-08-06T16:05:59;22.40;99.90
2631;DHT22;1325;48.414;9.952;2022-08-06T16:08:27;22.30;99.90
2631;DHT22;1325;48.414;9.952;2022-08-06T16:10:54;22.30;99.90
2631;DHT22;1325;48.414;9.952;2022-08-06T16:13:22;22.20;99.90
2631;DHT22;1325;48.414;9.952;2022-08-06T16:15:51;22.10;99.90
2631;DHT22;1325;48.414;9.952;2022-08-06T16:18:20;22.30;99.90
2631;DHT22;1325;48.414;9.952;2022-08-06T16:20:49;22.40;99.90
2631;DHT22;1325;48.414;9.952;2022-08-06T16:23:17;22.20;99.90
2631;DHT22;1325;48.414;9.952;2022-08-06T16:25:46;22.10;99.90
2631;DHT22;1325;48.414;9.952;2022-08-06T16:28:14;22.00;99.90